createdAt,value
2019-02-23T00:00:34.167Z,6.70
2019-02-23T00:03:05.103Z,7.10
2019-02-23T00:05:35.477Z,7.40
2019-02-23T00:08:04.833Z,6.77
2019-02-23T00:10:34.139Z,6.87
2019-02-23T00:13:03.447Z,7.07
2019-02-23T00:15:32.746Z,7.60
2019-02-23T00:18:02.047Z,6.80
2019-02-23T00:20:31.358Z,7.17
2019-02-23T00:23:00.653Z,6.47
2019-02-23T00:25:29.979Z,6.73
2019-02-23T00:27:59.288Z,6.80
2019-02-23T00:30:29.676Z,6.13
2019-02-23T00:32:58.975Z,5.93
2019-02-23T00:35:28.283Z,6.20
2019-02-23T00:37:57.603Z,6.20
2019-02-23T00:40:26.934Z,6.00
2019-02-23T00:42:56.226Z,5.73
2019-02-23T00:45:25.543Z,5.80
2019-02-23T00:47:54.848Z,6.60
2019-02-23T00:50:24.160Z,6.87
2019-02-23T00:52:53.456Z,6.13
2019-02-23T00:55:22.847Z,6.60
2019-02-23T00:57:52.153Z,6.67
2019-02-23T01:00:21.459Z,6.23
2019-02-23T01:02:50.763Z,6.90
2019-02-23T01:05:20.096Z,6.97
2019-02-23T01:07:49.387Z,6.00
2019-02-23T01:10:19.561Z,5.83
2019-02-23T01:12:49.184Z,6.33
2019-02-23T01:15:19.167Z,6.27
2019-02-23T01:17:48.470Z,5.73
2019-02-23T01:20:17.862Z,6.10
2019-02-23T01:22:47.230Z,6.80
2019-02-23T01:25:16.698Z,6.27
2019-02-23T01:27:46.022Z,6.07
2019-02-23T01:30:15.334Z,6.53
2019-02-23T01:32:44.642Z,6.30
2019-02-23T01:35:14.043Z,6.77
2019-02-23T01:37:43.383Z,6.63
2019-02-23T01:40:12.687Z,6.13
2019-02-23T01:42:41.991Z,6.50
2019-02-23T01:45:11.565Z,6.40
2019-02-23T01:47:40.875Z,6.13
2019-02-23T01:50:11.515Z,7.00
2019-02-23T01:52:40.811Z,5.93
2019-02-23T01:55:10.115Z,6.60
2019-02-23T01:57:39.414Z,6.27
2019-02-23T02:00:11.756Z,6.90
2019-02-23T02:02:41.231Z,7.10
2019-02-23T02:05:10.799Z,6.87
2019-02-23T02:07:40.279Z,7.20
2019-02-23T02:10:10.216Z,7.10
2019-02-23T02:12:39.523Z,7.33
2019-02-23T02:15:12.238Z,7.83
2019-02-23T02:17:41.540Z,8.10
2019-02-23T02:20:11.626Z,7.73
2019-02-23T02:22:41.247Z,7.87
2019-02-23T02:25:10.710Z,8.07
2019-02-23T02:27:40.019Z,8.40
2019-02-23T02:30:11.085Z,8.20
2019-02-23T02:32:40.392Z,8.80
2019-02-23T02:35:10.838Z,8.10
2019-02-23T02:37:40.170Z,7.80
2019-02-23T02:40:10.019Z,8.57
2019-02-23T02:42:39.449Z,8.20
2019-02-23T02:45:10.731Z,8.33
2019-02-23T02:47:40.051Z,8.80
2019-02-23T02:50:23.114Z,8.50
2019-02-23T02:52:41.183Z,8.50
2019-02-23T02:55:10.500Z,8.83
2019-02-23T02:57:39.819Z,8.60
2019-02-23T03:00:11.848Z,8.60
2019-02-23T03:02:42.118Z,8.70
2019-02-23T03:05:11.659Z,7.90
2019-02-23T03:07:41.125Z,8.80
2019-02-23T03:10:10.455Z,8.73
2019-02-23T03:12:39.739Z,8.00
2019-02-23T03:15:09.112Z,8.87
2019-02-23T03:17:38.422Z,9.00
2019-02-23T03:20:08.722Z,8.73
2019-02-23T03:22:38.973Z,9.40
2019-02-23T03:25:08.344Z,8.63
2019-02-23T03:27:37.650Z,8.90
2019-02-23T03:30:09.718Z,9.50
2019-02-23T03:32:39.100Z,8.43
2019-02-23T03:35:08.476Z,8.83
2019-02-23T03:37:37.766Z,9.27
2019-02-23T03:40:08.724Z,9.43
2019-02-23T03:42:38.997Z,9.60
2019-02-23T03:45:08.531Z,9.13
2019-02-23T03:47:38.020Z,9.17
2019-02-23T03:50:07.997Z,9.13
2019-02-23T03:52:37.423Z,9.30
2019-02-23T03:55:06.911Z,9.10
2019-02-23T03:57:36.288Z,9.93
2019-02-23T04:00:08.745Z,9.70
2019-02-23T04:02:38.066Z,10.23
2019-02-23T04:05:07.374Z,9.67
2019-02-23T04:07:36.699Z,9.73
2019-02-23T04:10:07.431Z,9.77
2019-02-23T04:12:36.754Z,9.77
2019-02-23T04:15:07.015Z,9.93
2019-02-23T04:17:36.391Z,9.53
2019-02-23T04:20:07.640Z,10.20
2019-02-23T04:22:36.962Z,9.73
2019-02-23T04:25:07.993Z,9.70
2019-02-23T04:27:37.313Z,10.03
2019-02-23T04:30:08.812Z,10.17
2019-02-23T04:32:38.091Z,9.83
2019-02-23T04:35:08.364Z,9.77
2019-02-23T04:37:37.674Z,10.03
2019-02-23T04:40:07.646Z,10.40
2019-02-23T04:42:36.954Z,10.10
2019-02-23T04:45:07.605Z,10.67
2019-02-23T04:47:36.907Z,10.70
2019-02-23T04:50:09.542Z,10.87
2019-02-23T04:52:38.858Z,10.60
2019-02-23T04:55:08.984Z,10.50
2019-02-23T04:57:38.315Z,10.83
2019-02-23T05:00:13.390Z,12.20
2019-02-23T05:02:42.705Z,11.77
2019-02-23T05:05:12.368Z,13.30
2019-02-23T05:07:41.677Z,12.20
2019-02-23T05:10:10.998Z,11.70
2019-02-23T05:12:40.408Z,11.63
2019-02-23T05:15:10.829Z,11.37
2019-02-23T05:17:40.143Z,11.80
2019-02-23T05:20:09.465Z,11.67
2019-02-23T05:22:38.868Z,11.40
2019-02-23T05:25:08.176Z,10.87
2019-02-23T05:27:37.513Z,10.97
2019-02-23T05:30:09.961Z,10.73
2019-02-23T05:32:39.297Z,11.83
2019-02-23T05:35:12.849Z,11.20
2019-02-23T05:37:42.161Z,11.57
2019-02-23T05:40:14.251Z,12.07
2019-02-23T05:42:43.554Z,11.53
2019-02-23T05:45:12.998Z,11.43
2019-02-23T05:47:42.333Z,12.93
2019-02-23T05:50:11.634Z,11.70
2019-02-23T05:52:40.951Z,12.33
2019-02-23T05:55:10.278Z,12.10
2019-02-23T05:57:39.589Z,12.63
2019-02-23T06:00:13.563Z,12.17
2019-02-23T06:02:45.070Z,13.20
2019-02-23T06:05:13.928Z,13.73
2019-02-23T06:07:43.245Z,13.27
2019-02-23T06:10:12.667Z,12.87
2019-02-23T06:12:43.092Z,12.53
2019-02-23T06:15:13.074Z,12.50
2019-02-23T06:17:42.422Z,13.90
2019-02-23T06:20:11.784Z,13.20
2019-02-23T06:22:41.154Z,13.30
2019-02-23T06:25:10.464Z,13.67
2019-02-23T06:27:39.829Z,13.03
2019-02-23T06:30:11.818Z,13.87
2019-02-23T06:32:41.158Z,13.77
2019-02-23T06:35:10.726Z,13.23
2019-02-23T06:37:40.067Z,12.67
2019-02-23T06:40:10.793Z,13.87
2019-02-23T06:42:41.076Z,13.43
2019-02-23T06:45:12.108Z,13.17
2019-02-23T06:47:41.423Z,14.80
2019-02-23T06:50:10.731Z,13.67
2019-02-23T06:52:40.056Z,13.27
2019-02-23T06:55:09.383Z,13.80
2019-02-23T06:57:38.690Z,12.87
2019-02-23T07:00:11.075Z,13.60
2019-02-23T07:02:40.379Z,13.57
2019-02-23T07:05:09.763Z,14.17
2019-02-23T07:07:39.081Z,14.33
2019-02-23T07:10:11.435Z,14.57
2019-02-23T07:12:40.739Z,12.93
2019-02-23T07:15:11.030Z,14.30
2019-02-23T07:17:40.398Z,14.47
2019-02-23T07:20:10.767Z,14.20
2019-02-23T07:22:40.071Z,14.53
2019-02-23T07:25:16.237Z,14.23
2019-02-23T07:27:45.531Z,14.27
2019-02-23T07:30:15.011Z,13.97
2019-02-23T07:32:44.319Z,17.87
2019-02-23T07:35:14.592Z,14.23
2019-02-23T07:37:44.159Z,13.80
2019-02-23T07:40:15.011Z,14.53
2019-02-23T07:42:44.329Z,16.47
2019-02-23T07:48:08.282Z,14.60
2019-02-23T07:50:37.623Z,16.53
2019-02-23T07:53:06.935Z,17.90
2019-02-23T07:55:36.309Z,18.33
2019-02-23T07:58:05.611Z,18.07
2019-02-23T08:00:34.918Z,19.70
2019-02-23T08:06:02.351Z,13.67
2019-02-23T08:08:31.651Z,14.50
2019-02-23T08:11:01.221Z,15.37
2019-02-23T08:13:30.578Z,14.47
2019-02-23T08:15:59.975Z,14.33
2019-02-23T08:18:29.262Z,14.63
2019-02-23T08:20:58.577Z,14.47
2019-02-23T08:23:27.874Z,14.17
2019-02-23T08:25:57.212Z,14.33
2019-02-23T08:28:26.518Z,19.03
2019-02-23T08:30:55.840Z,14.27
2019-02-23T08:33:25.141Z,13.77
2019-02-23T08:35:54.447Z,14.40
2019-02-23T08:38:23.736Z,15.67
2019-02-23T08:40:53.062Z,15.00
2019-02-23T08:43:22.467Z,13.97
2019-02-23T08:45:51.784Z,15.10
2019-02-23T08:48:21.089Z,14.90
2019-02-23T08:50:50.417Z,14.50
2019-02-23T08:53:20.771Z,14.33
2019-02-23T08:55:50.203Z,14.47
2019-02-23T08:58:20.562Z,14.80
2019-02-23T09:00:49.892Z,14.57
2019-02-23T09:03:19.188Z,15.53
2019-02-23T09:05:49.586Z,14.00
2019-02-23T09:08:18.906Z,16.40
2019-02-23T09:10:48.311Z,14.57
2019-02-23T09:13:17.626Z,15.23
2019-02-23T09:15:46.970Z,16.67
2019-02-23T09:18:16.331Z,15.87
2019-02-23T09:20:45.652Z,14.37
2019-02-23T09:23:14.958Z,15.37
2019-02-23T09:25:44.265Z,14.70
2019-02-23T09:28:13.589Z,15.77
2019-02-23T09:30:42.978Z,19.03
2019-02-23T09:33:12.266Z,16.63
2019-02-23T09:35:41.655Z,16.23
2019-02-23T09:38:10.985Z,15.37
2019-02-23T09:40:40.381Z,15.67
2019-02-23T09:43:09.672Z,22.93
2019-02-23T09:45:39.006Z,15.93
2019-02-23T09:48:08.323Z,16.17
2019-02-23T09:50:37.647Z,14.90
2019-02-23T09:53:11.137Z,14.90
2019-02-23T09:55:37.950Z,17.47
2019-02-23T09:58:07.253Z,14.83
2019-02-23T10:00:36.573Z,14.77
2019-02-23T10:03:05.862Z,15.03
2019-02-23T10:05:35.201Z,13.87
2019-02-23T10:08:04.506Z,14.43
2019-02-23T10:10:33.847Z,13.10
2019-02-23T10:13:03.155Z,13.20
2019-02-23T10:15:32.522Z,14.03
2019-02-23T10:18:01.815Z,14.10
2019-02-23T10:20:31.157Z,13.33
2019-02-23T10:23:01.409Z,14.20
2019-02-23T10:25:30.754Z,13.67
2019-02-23T10:28:00.111Z,12.57
2019-02-23T10:30:29.445Z,13.03
2019-02-23T10:32:58.785Z,12.57
2019-02-23T10:35:28.126Z,13.30
2019-02-23T10:37:57.500Z,13.20
2019-02-23T10:40:26.817Z,13.70
2019-02-23T10:42:56.147Z,12.33
2019-02-23T10:45:25.443Z,12.63
2019-02-23T10:47:54.762Z,12.60
2019-02-23T10:50:25.036Z,11.90
2019-02-23T10:52:54.366Z,13.67
2019-02-23T10:55:23.663Z,12.53
2019-02-23T10:57:53.115Z,11.23
2019-02-23T11:00:22.810Z,10.53
2019-02-23T11:02:52.138Z,11.80
2019-02-23T11:05:21.670Z,11.00
2019-02-23T11:07:50.999Z,11.17
2019-02-23T11:10:20.648Z,11.70
2019-02-23T11:12:49.972Z,10.40
2019-02-23T11:15:20.445Z,10.97
2019-02-23T11:17:49.797Z,10.67
2019-02-23T11:23:09.295Z,10.53
2019-02-23T11:25:38.749Z,11.03
2019-02-23T11:28:08.379Z,10.03
2019-02-23T11:30:37.769Z,10.67
2019-02-23T11:33:07.209Z,10.30
2019-02-23T11:35:36.604Z,10.60
2019-02-23T11:38:07.192Z,10.30
2019-02-23T11:40:36.698Z,10.67
2019-02-23T11:43:08.302Z,9.73
2019-02-23T11:45:37.884Z,11.67
2019-02-23T11:48:07.443Z,10.37
2019-02-23T11:50:36.837Z,10.87
2019-02-23T11:53:06.236Z,9.90
2019-02-23T11:55:35.650Z,10.50
2019-02-23T11:58:05.079Z,10.43
2019-02-23T12:00:34.426Z,10.43
2019-02-23T12:03:03.957Z,10.13
2019-02-23T12:05:33.291Z,10.13
2019-02-23T12:08:02.716Z,10.20
2019-02-23T12:10:32.056Z,10.77
2019-02-23T12:13:01.471Z,10.17
2019-02-23T12:15:30.836Z,9.83
2019-02-23T12:18:00.198Z,10.03
2019-02-23T12:20:29.575Z,10.50
2019-02-23T12:22:58.974Z,11.03
2019-02-23T12:25:28.302Z,11.03
2019-02-23T12:27:58.661Z,12.20
2019-02-23T12:30:28.021Z,10.50
2019-02-23T12:32:57.481Z,10.70
2019-02-23T12:35:32.992Z,10.50
2019-02-23T12:38:02.514Z,11.03
2019-02-23T12:40:32.932Z,10.60
2019-02-23T12:43:02.576Z,11.43
2019-02-23T12:45:32.047Z,10.00
2019-02-23T12:48:01.395Z,10.40
2019-02-23T12:50:33.281Z,10.60
2019-02-23T12:53:01.867Z,10.43
2019-02-23T12:55:32.309Z,9.83
2019-02-23T12:58:01.694Z,9.87
2019-02-23T13:00:32.579Z,10.30
2019-02-23T13:03:02.098Z,10.80
2019-02-23T13:05:31.840Z,12.50
2019-02-23T13:08:03.459Z,11.30
2019-02-23T13:10:32.893Z,11.07
2019-02-23T13:13:17.204Z,9.30
2019-02-23T13:15:55.378Z,9.10
2019-02-23T13:18:53.806Z,9.07
2019-02-23T13:21:41.807Z,9.27
2019-02-23T13:24:37.186Z,9.17
2019-02-23T13:27:15.647Z,9.47
2019-02-23T13:30:12.211Z,8.93
2019-02-23T13:32:45.031Z,9.47
2019-02-23T13:35:32.779Z,8.83
2019-02-23T13:38:05.215Z,9.03
2019-02-23T13:40:55.506Z,8.37
2019-02-23T13:43:27.932Z,8.13
2019-02-23T13:46:09.295Z,9.27
2019-02-23T13:48:57.855Z,8.53
2019-02-23T13:51:54.034Z,8.57
2019-02-23T13:54:38.642Z,8.93
2019-02-23T13:57:22.631Z,8.27
2019-02-23T13:59:57.632Z,9.13
2019-02-23T14:02:34.203Z,8.50
2019-02-23T14:05:18.802Z,9.07
2019-02-23T14:07:56.789Z,8.43
2019-02-23T14:10:32.034Z,9.07
2019-02-23T14:13:07.421Z,8.93
2019-02-23T14:15:51.681Z,8.70
2019-02-23T14:18:52.782Z,8.07
2019-02-23T14:21:28.307Z,9.43
2019-02-23T14:24:08.632Z,9.23
2019-02-23T14:27:10.983Z,8.97
2019-02-23T14:29:54.477Z,8.43
2019-02-23T14:32:35.699Z,8.93
2019-02-23T14:35:17.248Z,8.83
2019-02-23T14:38:21.557Z,8.40
2019-02-23T14:40:56.478Z,11.73
2019-02-23T14:43:29.908Z,13.90
2019-02-23T14:46:31.325Z,8.77
2019-02-23T14:49:11.480Z,11.67
2019-02-23T14:52:02.797Z,8.80
2019-02-23T14:54:47.382Z,8.37
2019-02-23T14:57:42.432Z,8.07
2019-02-23T15:00:31.341Z,8.10
2019-02-23T15:03:26.792Z,8.17
2019-02-23T15:06:21.318Z,8.93
2019-02-23T15:08:53.755Z,14.17
2019-02-23T15:11:51.863Z,17.73
2019-02-23T15:14:51.224Z,9.03
2019-02-23T15:17:23.714Z,10.30
2019-02-23T15:20:20.018Z,9.93
2019-02-23T15:23:24.105Z,9.07
2019-02-23T15:26:32.965Z,8.13
2019-02-23T15:29:26.426Z,8.93
2019-02-23T15:32:04.785Z,8.43
2019-02-23T15:35:03.317Z,8.60
2019-02-23T15:37:35.739Z,8.83
2019-02-23T15:40:21.926Z,8.53
2019-02-23T15:43:03.448Z,9.10
2019-02-23T15:45:51.066Z,11.03
2019-02-23T15:48:38.343Z,8.77
2019-02-23T15:51:13.568Z,9.20
2019-02-23T15:53:43.036Z,9.13
2019-02-23T15:56:12.467Z,9.17
2019-02-23T15:58:42.946Z,8.57
2019-02-23T16:01:12.291Z,8.20
2019-02-23T16:03:42.742Z,8.83
2019-02-23T16:06:12.130Z,8.53
2019-02-23T16:08:41.569Z,10.90
2019-02-23T16:11:11.894Z,10.53
2019-02-23T16:13:41.295Z,10.57
2019-02-23T16:16:10.664Z,10.13
2019-02-23T16:18:40.181Z,9.83
2019-02-23T16:21:09.555Z,15.10
2019-02-23T16:23:38.984Z,9.50
2019-02-23T16:26:08.356Z,8.07
2019-02-23T16:28:37.801Z,8.70
2019-02-23T16:31:07.246Z,9.20
2019-02-23T16:33:36.766Z,10.93
2019-02-23T16:36:06.141Z,9.43
2019-02-23T16:38:38.506Z,10.83
2019-02-23T16:41:07.884Z,11.30
2019-02-23T16:43:38.175Z,11.33
2019-02-23T16:46:07.562Z,13.10
2019-02-23T16:48:36.935Z,13.27
2019-02-23T16:51:06.481Z,19.33
2019-02-23T16:53:35.911Z,11.93
2019-02-23T16:56:06.250Z,10.57
2019-02-23T16:58:36.412Z,11.30
2019-02-23T17:01:05.872Z,15.83
2019-02-23T17:03:35.286Z,14.47
2019-02-23T17:06:04.732Z,20.63
2019-02-23T17:08:34.085Z,24.87
2019-02-23T17:11:03.445Z,22.47
2019-02-23T17:13:32.884Z,40.43
2019-02-23T17:16:02.311Z,26.03
2019-02-23T17:18:31.670Z,20.10
2019-02-23T17:21:01.041Z,13.60
2019-02-23T17:23:30.413Z,12.60
2019-02-23T17:26:04.318Z,13.93
2019-02-23T17:28:30.833Z,14.93
2019-02-23T17:31:06.166Z,13.03
2019-02-23T17:33:35.542Z,14.53
2019-02-23T17:36:05.046Z,10.43
2019-02-23T17:38:34.506Z,11.10
2019-02-23T17:41:04.835Z,10.73
2019-02-23T17:43:35.251Z,10.20
2019-02-23T17:46:04.631Z,15.83
2019-02-23T17:48:34.089Z,10.53
2019-02-23T17:51:13.865Z,18.57
2019-02-23T17:53:43.232Z,16.60
2019-02-23T17:56:14.113Z,12.83
2019-02-23T17:58:43.714Z,11.57
2019-02-23T18:01:16.244Z,10.30
2019-02-23T18:03:45.597Z,9.17
2019-02-23T18:06:14.962Z,8.93
2019-02-23T18:08:44.406Z,9.20
2019-02-23T18:11:13.842Z,8.33
2019-02-23T18:13:43.301Z,8.27
2019-02-23T18:16:12.630Z,7.37
2019-02-23T18:18:42.048Z,8.80
2019-02-23T18:21:17.126Z,8.57
2019-02-23T18:23:46.468Z,8.00
2019-02-23T18:26:21.011Z,7.90
2019-02-23T18:28:47.336Z,8.57
2019-02-23T18:31:16.752Z,8.17
2019-02-23T18:33:46.133Z,8.83
2019-02-23T18:36:15.444Z,8.30
2019-02-23T18:38:48.580Z,8.00
2019-02-23T18:41:17.903Z,8.23
2019-02-23T18:43:47.250Z,7.87
2019-02-23T18:46:16.571Z,7.40
2019-02-23T18:48:45.973Z,7.73
2019-02-23T18:51:15.313Z,7.97
2019-02-23T18:53:44.646Z,7.97
2019-02-23T18:56:13.981Z,8.43
2019-02-23T18:58:49.446Z,8.10
2019-02-23T19:01:18.765Z,8.27
2019-02-23T19:03:51.389Z,8.73
2019-02-23T19:06:20.719Z,8.30
2019-02-23T19:08:50.091Z,8.80
2019-02-23T19:11:19.443Z,8.90
2019-02-23T19:13:48.831Z,9.50
2019-02-23T19:16:18.242Z,9.60
2019-02-23T19:18:47.594Z,7.90
2019-02-23T19:21:16.916Z,8.70
2019-02-23T19:23:46.268Z,9.67
2019-02-23T19:26:15.685Z,9.33
2019-02-23T19:28:45.026Z,9.00
2019-02-23T19:31:14.360Z,10.60
2019-02-23T19:33:45.746Z,10.20
2019-02-23T19:36:15.140Z,11.93
2019-02-23T19:38:46.117Z,12.20
2019-02-23T19:41:15.514Z,11.47
2019-02-23T19:43:52.831Z,12.50
2019-02-23T19:46:22.574Z,13.30
2019-02-23T19:48:57.656Z,10.10
2019-02-23T19:51:26.988Z,10.27
2019-02-23T19:53:58.374Z,10.87
2019-02-23T19:56:27.858Z,10.70
2019-02-23T19:58:57.241Z,10.10
2019-02-23T20:01:26.611Z,10.33
2019-02-23T20:03:55.964Z,9.20
2019-02-23T20:06:25.291Z,10.30
2019-02-23T20:09:00.428Z,10.33
2019-02-23T20:11:31.598Z,11.03
2019-02-23T20:14:00.946Z,10.47
2019-02-23T20:16:30.348Z,10.20
2019-02-23T20:19:03.394Z,11.23
2019-02-23T20:21:32.796Z,10.30
2019-02-23T20:24:03.290Z,10.83
2019-02-23T20:26:32.677Z,10.13
2019-02-23T20:29:02.153Z,10.77
2019-02-23T20:31:31.528Z,10.47
2019-02-23T20:34:01.090Z,10.80
2019-02-23T20:36:30.436Z,11.00
2019-02-23T20:38:59.900Z,10.47
2019-02-23T20:41:29.361Z,11.03
2019-02-23T20:43:58.724Z,10.60
2019-02-23T20:46:28.063Z,10.37
2019-02-23T20:48:57.635Z,10.80
2019-02-23T20:51:27.133Z,9.70
2019-02-23T20:53:56.498Z,11.00
2019-02-23T20:56:25.905Z,10.87
2019-02-23T20:58:57.161Z,10.20
2019-02-23T21:01:26.537Z,10.03
2019-02-23T21:03:55.950Z,9.73
2019-02-23T21:06:25.310Z,9.20
2019-02-23T21:09:00.465Z,8.63
2019-02-23T21:11:30.269Z,9.30
2019-02-23T21:13:59.599Z,10.83
2019-02-23T21:16:29.005Z,9.93
2019-02-23T21:18:58.440Z,10.13
2019-02-23T21:21:28.789Z,9.83
2019-02-23T21:23:58.228Z,9.23
2019-02-23T21:26:27.682Z,10.60
2019-02-23T21:28:57.073Z,9.90
2019-02-23T21:31:26.429Z,9.60
2019-02-23T21:33:55.824Z,9.87
2019-02-23T21:36:25.202Z,10.37
2019-02-23T21:38:54.549Z,9.67
2019-02-23T21:41:23.917Z,9.90
2019-02-23T21:43:53.319Z,8.83
2019-02-23T21:46:22.680Z,9.27
2019-02-23T21:48:52.023Z,9.40
2019-02-23T21:51:21.421Z,9.60
2019-02-23T21:53:50.765Z,9.53
2019-02-23T21:56:21.076Z,9.63
2019-02-23T21:58:50.472Z,8.93
2019-02-23T22:01:19.877Z,9.10
2019-02-23T22:03:49.377Z,9.43
2019-02-23T22:06:18.882Z,9.77
2019-02-23T22:08:49.249Z,8.53
2019-02-23T22:11:18.812Z,9.80
2019-02-23T22:13:48.202Z,9.30
2019-02-23T22:16:17.602Z,8.93
2019-02-23T22:18:53.387Z,9.40
2019-02-23T22:21:22.791Z,9.67
2019-02-23T22:23:52.252Z,9.70
2019-02-23T22:26:21.646Z,9.63
2019-02-23T22:28:51.966Z,9.13
2019-02-23T22:31:24.396Z,9.23
2019-02-23T22:33:53.773Z,10.03
2019-02-23T22:36:23.211Z,9.90
2019-02-23T22:38:52.652Z,9.60
2019-02-23T22:41:22.001Z,10.30
2019-02-23T22:43:58.084Z,9.93
2019-02-23T22:46:27.421Z,10.57
2019-02-23T22:49:05.772Z,11.53
2019-02-23T22:51:35.104Z,10.70
2019-02-23T22:54:04.484Z,10.20
2019-02-23T22:56:33.898Z,11.03
2019-02-23T22:59:03.375Z,9.80
2019-02-23T23:01:33.234Z,13.57
2019-02-23T23:04:02.754Z,12.67
2019-02-23T23:06:32.178Z,11.67
2019-02-23T23:09:01.536Z,11.33
2019-02-23T23:11:32.615Z,10.57
2019-02-23T23:14:02.045Z,10.40
2019-02-23T23:16:31.420Z,11.57
2019-02-23T23:19:01.093Z,11.27
2019-02-23T23:21:30.527Z,10.10
2019-02-23T23:23:59.971Z,11.67
2019-02-23T23:26:29.469Z,11.20
2019-02-23T23:28:58.829Z,11.50
2019-02-23T23:31:28.172Z,11.20
2019-02-23T23:33:57.563Z,12.07
2019-02-23T23:36:26.975Z,11.13
2019-02-23T23:39:02.638Z,11.37
2019-02-23T23:41:33.608Z,11.73
2019-02-23T23:44:03.042Z,11.30
2019-02-23T23:46:32.387Z,11.67
2019-02-23T23:49:02.758Z,11.30
2019-02-23T23:51:32.133Z,12.00
2019-02-23T23:54:01.536Z,11.80
2019-02-23T23:56:30.879Z,11.30
2019-02-23T23:59:00.247Z,11.70
